createdAt,value
2023-05-19T00:00:01.219Z,3.7
2023-05-19T00:01:00.921Z,3.7
2023-05-19T00:02:00.961Z,3.7
2023-05-19T00:03:00.886Z,3.7
2023-05-19T00:04:00.892Z,3.3
2023-05-19T00:05:00.899Z,3.3
2023-05-19T00:06:01.228Z,3.3
2023-05-19T00:07:01.970Z,3.3
2023-05-19T00:08:01.881Z,3.3
2023-05-19T00:09:01.922Z,3.3
2023-05-19T00:10:00.898Z,3.3
2023-05-19T00:11:01.015Z,3.3
2023-05-19T00:12:00.913Z,3.3
2023-05-19T00:13:00.904Z,3.3
2023-05-19T00:14:01.583Z,3.3
2023-05-19T00:15:00.973Z,3.3
2023-05-19T00:16:00.975Z,3.3
2023-05-19T00:17:00.971Z,3.3
2023-05-19T00:18:00.820Z,3.3
2023-05-19T00:19:01.840Z,3.3
2023-05-19T00:20:00.880Z,3.3
2023-05-19T00:21:00.803Z,3.3
2023-05-19T00:22:00.832Z,3.3
2023-05-19T00:23:00.812Z,3.3
2023-05-19T00:24:00.803Z,4.0
2023-05-19T00:25:00.777Z,4.0
2023-05-19T00:26:00.833Z,4.0
2023-05-19T00:27:00.816Z,4.0
2023-05-19T00:28:01.273Z,4.0
2023-05-19T00:29:00.763Z,4.0
2023-05-19T00:30:00.831Z,4.0
2023-05-19T00:31:01.495Z,4.0
2023-05-19T00:32:00.880Z,4.0
2023-05-19T00:33:00.866Z,4.0
2023-05-19T00:34:00.840Z,3.1
2023-05-19T00:35:00.816Z,3.1
2023-05-19T00:36:02.721Z,3.1
2023-05-19T00:37:00.866Z,3.1
2023-05-19T00:38:00.797Z,3.1
2023-05-19T00:39:00.775Z,3.1
2023-05-19T00:40:00.774Z,3.1
2023-05-19T00:41:01.474Z,3.1
2023-05-19T00:42:00.892Z,3.1
2023-05-19T00:43:00.955Z,3.1
2023-05-19T00:44:00.808Z,3.6
2023-05-19T00:45:00.815Z,3.6
2023-05-19T00:46:01.179Z,3.6
2023-05-19T00:47:01.372Z,3.6
2023-05-19T00:48:00.821Z,3.6
2023-05-19T00:49:00.768Z,3.6
2023-05-19T00:50:00.816Z,3.6
2023-05-19T00:51:02.597Z,3.6
2023-05-19T00:52:00.888Z,3.6
2023-05-19T00:53:00.887Z,3.6
2023-05-19T00:54:00.846Z,3.4
2023-05-19T00:55:01.038Z,3.4
2023-05-19T00:56:01.993Z,3.4
2023-05-19T00:57:00.935Z,3.4
2023-05-19T00:58:01.070Z,3.4
2023-05-19T00:59:01.329Z,3.4
2023-05-19T01:00:00.905Z,3.4
2023-05-19T01:01:00.869Z,3.4
2023-05-19T01:02:00.842Z,3.4
2023-05-19T01:03:01.076Z,3.4
2023-05-19T01:04:01.341Z,3.1
2023-05-19T01:05:00.994Z,3.1
2023-05-19T01:06:01.354Z,3.1
2023-05-19T01:07:00.890Z,3.1
2023-05-19T01:08:01.200Z,3.1
2023-05-19T01:09:00.815Z,3.1
2023-05-19T01:10:00.849Z,3.1
2023-05-19T01:11:00.809Z,3.1
2023-05-19T01:12:00.865Z,3.1
2023-05-19T01:13:01.531Z,3.1
2023-05-19T01:14:00.853Z,2.7
2023-05-19T01:15:01.685Z,2.7
2023-05-19T01:16:06.836Z,2.7
2023-05-19T01:17:08.713Z,2.7
2023-05-19T01:18:04.187Z,2.7
2023-05-19T01:19:00.826Z,2.7
2023-05-19T01:20:10.684Z,2.7
2023-05-19T01:21:10.661Z,2.7
2023-05-19T01:22:00.788Z,2.7
2023-05-19T01:23:10.681Z,2.7
2023-05-19T01:24:08.149Z,2.7
2023-05-19T01:25:10.677Z,2.7
2023-05-19T01:26:10.668Z,2.7
2023-05-19T01:27:04.095Z,2.7
2023-05-19T01:28:04.153Z,2.7
2023-05-19T01:29:07.216Z,2.7
2023-05-19T01:30:10.706Z,2.7
2023-05-19T01:31:00.914Z,2.7
2023-05-19T01:32:03.582Z,2.7
2023-05-19T01:33:01.984Z,2.7
2023-05-19T01:34:01.801Z,2.9
2023-05-19T01:35:02.751Z,2.9
2023-05-19T01:36:02.517Z,2.9
2023-05-19T01:37:01.712Z,2.9
2023-05-19T01:38:02.670Z,2.9
2023-05-19T01:39:01.385Z,2.9
2023-05-19T01:40:00.906Z,2.9
2023-05-19T01:41:02.044Z,2.9
2023-05-19T01:42:01.338Z,2.9
2023-05-19T01:43:01.016Z,2.9
2023-05-19T01:44:01.115Z,3.1
2023-05-19T01:45:01.216Z,3.1
2023-05-19T01:46:01.747Z,3.1
2023-05-19T01:47:01.426Z,3.1
2023-05-19T01:48:03.034Z,3.1
2023-05-19T01:49:01.024Z,3.1
2023-05-19T01:50:00.881Z,3.1
2023-05-19T01:51:00.900Z,3.1
2023-05-19T01:52:01.113Z,3.1
2023-05-19T01:53:01.044Z,3.1
2023-05-19T01:54:00.880Z,2.7
2023-05-19T01:55:01.004Z,2.7
2023-05-19T01:56:00.952Z,2.7
2023-05-19T01:57:01.792Z,2.7
2023-05-19T01:58:10.670Z,2.7
2023-05-19T01:59:06.472Z,2.7
2023-05-19T02:00:09.033Z,2.7
2023-05-19T02:01:07.133Z,2.7
2023-05-19T02:02:04.737Z,2.7
2023-05-19T02:03:02.137Z,2.7
2023-05-19T02:04:00.837Z,3.0
2023-05-19T02:05:04.820Z,3.0
2023-05-19T02:06:10.730Z,3.0
2023-05-19T02:07:04.534Z,3.0
2023-05-19T02:08:07.406Z,3.0
2023-05-19T02:09:10.664Z,3.0
2023-05-19T02:10:10.678Z,3.0
2023-05-19T02:11:04.151Z,3.0
2023-05-19T02:12:10.663Z,3.0
2023-05-19T02:13:03.333Z,3.0
2023-05-19T02:14:02.319Z,2.5
2023-05-19T02:15:04.171Z,2.5
2023-05-19T02:16:03.486Z,2.5
2023-05-19T02:17:03.361Z,2.5
2023-05-19T02:18:01.663Z,2.5
2023-05-19T02:19:00.852Z,2.5
2023-05-19T02:20:01.900Z,2.5
2023-05-19T02:21:01.189Z,2.5
2023-05-19T02:22:00.768Z,2.5
2023-05-19T02:23:00.791Z,2.5
2023-05-19T02:24:00.815Z,2.9
2023-05-19T02:25:00.924Z,2.9
2023-05-19T02:26:00.781Z,2.9
2023-05-19T02:27:00.854Z,2.9
2023-05-19T02:28:00.845Z,2.9
2023-05-19T02:29:00.779Z,2.9
2023-05-19T02:30:01.181Z,2.9
2023-05-19T02:31:01.084Z,2.9
2023-05-19T02:32:00.850Z,2.9
2023-05-19T02:33:00.879Z,2.9
2023-05-19T02:34:00.778Z,2.7
2023-05-19T02:35:01.333Z,2.7
2023-05-19T02:36:00.894Z,2.7
2023-05-19T02:37:00.881Z,2.7
2023-05-19T02:38:00.830Z,2.7
2023-05-19T02:39:01.083Z,2.7
2023-05-19T02:40:00.815Z,2.7
2023-05-19T02:41:00.872Z,2.7
2023-05-19T02:42:00.832Z,2.7
2023-05-19T02:43:00.891Z,2.7
2023-05-19T02:44:00.824Z,2.4
2023-05-19T02:45:00.803Z,2.4
2023-05-19T02:46:00.861Z,2.4
2023-05-19T02:47:00.883Z,2.4
2023-05-19T02:48:00.913Z,2.4
2023-05-19T02:49:00.830Z,2.4
2023-05-19T02:50:00.903Z,2.4
2023-05-19T02:51:00.793Z,2.4
2023-05-19T02:52:02.303Z,2.4
2023-05-19T02:53:00.862Z,2.4
2023-05-19T02:54:00.854Z,2.3
2023-05-19T02:55:00.797Z,2.3
2023-05-19T02:56:00.784Z,2.3
2023-05-19T02:57:00.849Z,2.3
2023-05-19T02:58:00.834Z,2.3
2023-05-19T02:59:00.801Z,2.3
2023-05-19T03:00:00.793Z,2.3
2023-05-19T03:01:00.801Z,2.3
2023-05-19T03:02:01.255Z,2.3
2023-05-19T03:03:00.892Z,2.3
2023-05-19T03:04:00.922Z,2.3
2023-05-19T03:05:00.892Z,2.3
2023-05-19T03:06:00.823Z,2.3
2023-05-19T03:07:00.800Z,2.3
2023-05-19T03:08:00.820Z,2.3
2023-05-19T03:09:00.789Z,2.3
2023-05-19T03:10:01.034Z,2.3
2023-05-19T03:11:01.365Z,2.3
2023-05-19T03:12:00.802Z,2.3
2023-05-19T03:13:00.857Z,2.3
2023-05-19T03:14:00.814Z,3.0
2023-05-19T03:15:00.956Z,3.0
2023-05-19T03:16:00.816Z,3.0
2023-05-19T03:17:00.829Z,3.0
2023-05-19T03:18:00.977Z,3.0
2023-05-19T03:19:00.843Z,3.0
2023-05-19T03:20:00.878Z,3.0
2023-05-19T03:21:00.787Z,3.0
2023-05-19T03:22:01.079Z,3.0
2023-05-19T03:23:00.797Z,3.0
2023-05-19T03:24:01.048Z,3.0
2023-05-19T03:25:01.064Z,3.0
2023-05-19T03:26:00.877Z,3.0
2023-05-19T03:27:00.956Z,3.0
2023-05-19T03:28:00.859Z,3.0
2023-05-19T03:29:00.802Z,3.0
2023-05-19T03:30:00.834Z,3.0
2023-05-19T03:31:00.876Z,3.0
2023-05-19T03:32:00.818Z,3.0
2023-05-19T03:33:00.843Z,3.0
2023-05-19T03:34:00.814Z,3.1
2023-05-19T03:35:00.810Z,3.1
2023-05-19T03:36:00.860Z,3.1
2023-05-19T03:37:00.832Z,3.1
2023-05-19T03:38:00.919Z,3.1
2023-05-19T03:39:00.805Z,3.1
2023-05-19T03:40:00.943Z,3.1
2023-05-19T03:41:00.820Z,3.1
2023-05-19T03:42:00.860Z,3.1
2023-05-19T03:43:00.868Z,3.1
2023-05-19T03:44:00.969Z,3.2
2023-05-19T03:45:01.349Z,3.2
2023-05-19T03:46:00.898Z,3.2
2023-05-19T03:47:00.819Z,3.2
2023-05-19T03:48:00.905Z,3.2
2023-05-19T03:49:00.806Z,3.2
2023-05-19T03:50:00.800Z,3.2
2023-05-19T03:51:00.797Z,3.2
2023-05-19T03:52:00.887Z,3.2
2023-05-19T03:53:00.821Z,3.2
2023-05-19T03:54:00.902Z,3.1
2023-05-19T03:55:00.807Z,3.1
2023-05-19T03:56:00.866Z,3.1
2023-05-19T03:57:01.101Z,3.1
2023-05-19T03:58:00.814Z,3.1
2023-05-19T03:59:00.861Z,3.1
2023-05-19T04:00:01.079Z,3.1
2023-05-19T04:01:00.822Z,3.1
2023-05-19T04:02:00.803Z,3.1
2023-05-19T04:03:00.987Z,3.1
2023-05-19T04:04:00.984Z,3.1
2023-05-19T04:05:00.809Z,3.1
2023-05-19T04:06:00.934Z,3.1
2023-05-19T04:07:00.798Z,3.1
2023-05-19T04:08:00.829Z,3.1
2023-05-19T04:09:01.387Z,3.1
2023-05-19T04:10:03.210Z,3.1
2023-05-19T04:11:00.811Z,3.1
2023-05-19T04:12:01.092Z,3.1
2023-05-19T04:13:00.833Z,3.1
2023-05-19T04:14:00.810Z,3.2
2023-05-19T04:15:00.828Z,3.2
2023-05-19T04:16:00.967Z,3.2
2023-05-19T04:17:00.838Z,3.2
2023-05-19T04:18:00.798Z,3.2
2023-05-19T04:19:00.848Z,3.2
2023-05-19T04:20:00.786Z,3.2
2023-05-19T04:21:00.853Z,3.2
2023-05-19T04:22:00.825Z,3.2
2023-05-19T04:23:00.813Z,3.2
2023-05-19T04:24:00.845Z,3.1
2023-05-19T04:25:00.834Z,3.1
2023-05-19T04:26:00.832Z,3.1
2023-05-19T04:27:00.937Z,3.1
2023-05-19T04:28:00.913Z,3.1
2023-05-19T04:29:00.836Z,3.1
2023-05-19T04:30:01.019Z,3.1
2023-05-19T04:31:00.864Z,3.1
2023-05-19T04:32:00.908Z,3.1
2023-05-19T04:33:00.818Z,3.1
2023-05-19T04:34:00.809Z,2.6
2023-05-19T04:35:00.826Z,2.6
2023-05-19T04:36:00.822Z,2.6
2023-05-19T04:37:01.170Z,2.6
2023-05-19T04:38:00.821Z,2.6
2023-05-19T04:39:00.806Z,2.6
2023-05-19T04:40:00.829Z,2.6
2023-05-19T04:41:00.810Z,2.6
2023-05-19T04:42:00.813Z,2.6
2023-05-19T04:43:00.837Z,2.6
2023-05-19T04:44:00.795Z,2.9
2023-05-19T04:45:00.808Z,2.9
2023-05-19T04:46:00.925Z,2.9
2023-05-19T04:47:01.053Z,2.9
2023-05-19T04:48:00.894Z,2.9
2023-05-19T04:49:00.802Z,2.9
2023-05-19T04:50:00.965Z,2.9
2023-05-19T04:51:00.840Z,2.9
2023-05-19T04:52:00.812Z,2.9
2023-05-19T04:53:00.815Z,2.9
2023-05-19T04:54:00.845Z,3.9
2023-05-19T04:55:00.894Z,3.9
2023-05-19T04:56:00.872Z,3.9
2023-05-19T04:57:00.818Z,3.9
2023-05-19T04:58:00.895Z,3.9
2023-05-19T04:59:00.819Z,3.9
2023-05-19T05:00:00.776Z,3.9
2023-05-19T05:01:00.769Z,3.9
2023-05-19T05:02:00.821Z,3.9
2023-05-19T05:03:00.914Z,3.9
2023-05-19T05:04:00.807Z,3.7
2023-05-19T05:05:00.859Z,3.7
2023-05-19T05:06:00.798Z,3.7
2023-05-19T05:07:00.804Z,3.7
2023-05-19T05:08:00.809Z,3.7
2023-05-19T05:09:00.810Z,3.7
2023-05-19T05:10:00.875Z,3.7
2023-05-19T05:11:00.942Z,3.7
2023-05-19T05:12:01.137Z,3.7
2023-05-19T05:13:00.890Z,3.7
2023-05-19T05:14:00.982Z,4.8
2023-05-19T05:15:00.968Z,4.8
2023-05-19T05:16:01.150Z,4.8
2023-05-19T05:17:00.936Z,4.8
2023-05-19T05:18:00.967Z,4.8
2023-05-19T05:19:01.345Z,4.8
2023-05-19T05:20:01.571Z,4.8
2023-05-19T05:21:01.028Z,4.8
2023-05-19T05:22:01.113Z,4.8
2023-05-19T05:23:00.933Z,4.8
2023-05-19T05:24:01.030Z,4.9
2023-05-19T05:25:00.988Z,4.9
2023-05-19T05:26:04.040Z,4.9
2023-05-19T05:27:00.884Z,4.9
2023-05-19T05:28:00.868Z,4.9
2023-05-19T05:29:01.275Z,4.9
2023-05-19T05:30:00.810Z,4.9
2023-05-19T05:31:00.828Z,4.9
2023-05-19T05:32:00.957Z,4.9
2023-05-19T05:33:01.275Z,4.9
2023-05-19T05:34:00.832Z,4.3
2023-05-19T05:35:00.947Z,4.3
2023-05-19T05:36:00.837Z,4.3
2023-05-19T05:37:00.817Z,4.3
2023-05-19T05:38:01.354Z,4.3
2023-05-19T05:39:00.840Z,4.3
2023-05-19T05:40:00.796Z,4.3
2023-05-19T05:41:00.915Z,4.3
2023-05-19T05:42:00.790Z,4.3
2023-05-19T05:43:00.797Z,4.3
2023-05-19T05:44:01.088Z,4.1
2023-05-19T05:45:00.816Z,4.1
2023-05-19T05:46:00.846Z,4.1
2023-05-19T05:47:01.588Z,4.1
2023-05-19T05:48:01.122Z,4.1
2023-05-19T05:49:01.101Z,4.1
2023-05-19T05:50:00.936Z,4.1
2023-05-19T05:51:00.964Z,4.1
2023-05-19T05:52:06.180Z,4.1
2023-05-19T05:53:01.951Z,4.1
2023-05-19T05:54:01.607Z,3.7
2023-05-19T05:55:00.921Z,3.7
2023-05-19T05:56:00.952Z,3.7
2023-05-19T05:57:01.009Z,3.7
2023-05-19T05:58:00.809Z,3.7
2023-05-19T05:59:01.114Z,3.7
2023-05-19T06:00:00.875Z,3.7
2023-05-19T06:01:00.805Z,3.7
2023-05-19T06:02:00.862Z,3.7
2023-05-19T06:03:00.871Z,3.7
2023-05-19T06:04:00.826Z,3.5
2023-05-19T06:05:00.901Z,3.5
2023-05-19T06:06:00.989Z,3.5
2023-05-19T06:07:00.808Z,3.5
2023-05-19T06:08:00.894Z,3.5
2023-05-19T06:09:00.791Z,3.5
2023-05-19T06:10:00.806Z,3.5
2023-05-19T06:11:00.875Z,3.5
2023-05-19T06:12:00.793Z,3.5
2023-05-19T06:13:00.957Z,3.5
2023-05-19T06:14:00.814Z,3.5
2023-05-19T06:15:01.818Z,3.5
2023-05-19T06:16:02.080Z,3.5
2023-05-19T06:17:00.791Z,3.5
2023-05-19T06:18:00.903Z,3.5
2023-05-19T06:19:00.845Z,3.5
2023-05-19T06:20:01.920Z,3.5
2023-05-19T06:21:00.876Z,3.5
2023-05-19T06:22:00.833Z,3.5
2023-05-19T06:23:01.728Z,3.5
2023-05-19T06:24:00.825Z,3.4
2023-05-19T06:25:00.810Z,3.4
2023-05-19T06:26:01.106Z,3.4
2023-05-19T06:27:00.836Z,3.4
2023-05-19T06:28:00.819Z,3.4
2023-05-19T06:29:00.813Z,3.4
2023-05-19T06:30:00.958Z,3.4
2023-05-19T06:31:00.829Z,3.4
2023-05-19T06:32:00.854Z,3.4
2023-05-19T06:33:00.962Z,3.4
2023-05-19T06:34:00.849Z,3.5
2023-05-19T06:35:00.836Z,3.5
2023-05-19T06:36:00.828Z,3.5
2023-05-19T06:37:00.814Z,3.5
2023-05-19T06:38:00.808Z,3.5
2023-05-19T06:39:02.529Z,3.5
2023-05-19T06:40:00.850Z,3.5
2023-05-19T06:41:00.820Z,3.5
2023-05-19T06:42:00.781Z,3.5
2023-05-19T06:43:00.820Z,3.5
2023-05-19T06:44:00.905Z,3.6
2023-05-19T06:45:00.896Z,3.6
2023-05-19T06:46:00.952Z,3.6
2023-05-19T06:47:00.838Z,3.6
2023-05-19T06:48:00.898Z,3.6
2023-05-19T06:49:00.867Z,3.6
2023-05-19T06:50:00.845Z,3.6
2023-05-19T06:51:00.802Z,3.6
2023-05-19T06:52:00.781Z,3.6
2023-05-19T06:53:00.823Z,3.6
2023-05-19T06:54:00.971Z,3.6
2023-05-19T06:55:01.094Z,3.7
2023-05-19T06:56:00.848Z,3.7
2023-05-19T06:57:00.781Z,3.7
2023-05-19T06:58:00.846Z,3.7
2023-05-19T06:59:00.800Z,3.7
2023-05-19T07:00:00.961Z,3.7
2023-05-19T07:01:00.849Z,3.7
2023-05-19T07:02:00.836Z,3.7
2023-05-19T07:03:00.889Z,3.7
2023-05-19T07:04:00.920Z,3.7
2023-05-19T07:05:00.801Z,3.3
2023-05-19T07:06:00.887Z,3.3
2023-05-19T07:07:00.797Z,3.3
2023-05-19T07:08:00.811Z,3.3
2023-05-19T07:09:00.811Z,3.3
2023-05-19T07:10:00.832Z,3.3
2023-05-19T07:11:00.812Z,3.3
2023-05-19T07:12:00.776Z,3.3
2023-05-19T07:13:00.811Z,3.3
2023-05-19T07:14:00.819Z,3.3
2023-05-19T07:15:00.845Z,3.4
2023-05-19T07:16:00.926Z,3.4
2023-05-19T07:17:00.937Z,3.4
2023-05-19T07:18:00.848Z,3.4
2023-05-19T07:19:00.850Z,3.4
2023-05-19T07:20:00.827Z,3.4
2023-05-19T07:21:00.822Z,3.4
2023-05-19T07:22:00.791Z,3.4
2023-05-19T07:23:00.820Z,3.4
2023-05-19T07:24:00.821Z,3.4
2023-05-19T07:25:00.899Z,3.4
2023-05-19T07:26:00.844Z,3.4
2023-05-19T07:27:00.857Z,3.4
2023-05-19T07:28:00.876Z,3.4
2023-05-19T07:29:00.803Z,3.4
2023-05-19T07:30:00.888Z,3.4
2023-05-19T07:31:00.819Z,3.4
2023-05-19T07:32:00.831Z,3.4
2023-05-19T07:33:00.926Z,3.4
2023-05-19T07:34:01.878Z,3.4
2023-05-19T07:35:00.989Z,3.4
2023-05-19T07:36:00.825Z,3.4
2023-05-19T07:37:00.833Z,3.4
2023-05-19T07:38:00.808Z,3.4
2023-05-19T07:39:00.913Z,3.4
2023-05-19T07:40:00.946Z,3.4
2023-05-19T07:41:01.408Z,3.4
2023-05-19T07:42:00.985Z,3.4
2023-05-19T07:43:00.803Z,3.4
2023-05-19T07:44:01.071Z,3.4
2023-05-19T07:45:01.023Z,3.1
2023-05-19T07:46:00.867Z,3.1
2023-05-19T07:47:00.854Z,3.1
2023-05-19T07:48:00.999Z,3.1
2023-05-19T07:49:00.892Z,3.1
2023-05-19T07:50:00.964Z,3.1
2023-05-19T07:51:01.197Z,3.1
2023-05-19T07:52:00.818Z,3.1
2023-05-19T07:53:00.798Z,3.1
2023-05-19T07:54:00.810Z,3.1
2023-05-19T07:55:00.896Z,3.4
2023-05-19T07:56:00.782Z,3.4
2023-05-19T07:57:00.832Z,3.4
2023-05-19T07:58:00.752Z,3.4
2023-05-19T07:59:00.801Z,3.4
2023-05-19T08:00:00.902Z,3.4
2023-05-19T08:01:00.932Z,3.4
2023-05-19T08:02:00.888Z,3.4
2023-05-19T08:03:00.844Z,3.4
2023-05-19T08:04:00.848Z,3.4
2023-05-19T08:05:00.760Z,3.0
2023-05-19T08:06:00.800Z,3.0
2023-05-19T08:07:00.793Z,3.0
2023-05-19T08:08:01.134Z,3.0
2023-05-19T08:09:00.743Z,3.0
2023-05-19T08:10:01.052Z,3.0
2023-05-19T08:11:01.563Z,3.0
2023-05-19T08:12:00.927Z,3.0
2023-05-19T08:13:00.777Z,3.0
2023-05-19T08:14:00.833Z,3.0
2023-05-19T08:15:01.739Z,3.2
2023-05-19T08:16:00.913Z,3.2
2023-05-19T08:17:00.774Z,3.2
2023-05-19T08:18:00.832Z,3.2
2023-05-19T08:19:00.866Z,3.2
2023-05-19T08:20:00.776Z,3.2
2023-05-19T08:21:00.782Z,3.2
2023-05-19T08:22:00.792Z,3.2
2023-05-19T08:23:00.888Z,3.2
2023-05-19T08:24:00.797Z,3.2
2023-05-19T08:25:00.840Z,3.1
2023-05-19T08:26:00.787Z,3.1
2023-05-19T08:27:00.816Z,3.1
2023-05-19T08:28:00.770Z,3.1
2023-05-19T08:29:00.792Z,3.1
2023-05-19T08:30:00.770Z,3.1
2023-05-19T08:31:00.813Z,3.1
2023-05-19T08:32:00.800Z,3.1
2023-05-19T08:33:01.156Z,3.1
2023-05-19T08:34:00.830Z,3.1
2023-05-19T08:35:00.802Z,2.7
2023-05-19T08:36:00.793Z,2.7
2023-05-19T08:37:00.817Z,2.7
2023-05-19T08:38:00.849Z,2.7
2023-05-19T08:39:00.857Z,2.7
2023-05-19T08:40:00.801Z,2.7
2023-05-19T08:41:00.816Z,2.7
2023-05-19T08:42:00.787Z,2.7
2023-05-19T08:43:00.777Z,2.7
2023-05-19T08:44:00.801Z,2.7
2023-05-19T08:45:01.310Z,2.8
2023-05-19T08:46:02.698Z,2.8
2023-05-19T08:47:02.543Z,2.8
2023-05-19T08:48:01.928Z,2.8
2023-05-19T08:49:02.891Z,2.8
2023-05-19T08:50:05.401Z,2.8
2023-05-19T08:51:10.695Z,2.8
2023-05-19T08:52:01.835Z,2.8
2023-05-19T08:53:00.802Z,2.8
2023-05-19T08:54:06.391Z,2.8
2023-05-19T08:55:07.833Z,2.8
2023-05-19T08:56:03.857Z,2.8
2023-05-19T08:57:01.017Z,2.8
2023-05-19T08:58:02.483Z,2.8
2023-05-19T08:59:01.191Z,2.8
2023-05-19T09:00:01.870Z,2.8
2023-05-19T09:01:01.568Z,2.8
2023-05-19T09:02:01.556Z,2.8
2023-05-19T09:04:01.708Z,2.8
2023-05-19T09:05:01.466Z,3.0
2023-05-19T09:06:00.972Z,3.0
2023-05-19T09:07:00.872Z,3.0
2023-05-19T09:08:02.223Z,3.0
2023-05-19T09:09:00.869Z,3.0
2023-05-19T09:10:00.934Z,3.0
2023-05-19T09:11:00.855Z,3.0
2023-05-19T09:12:00.982Z,3.0
2023-05-19T09:13:00.810Z,3.0
2023-05-19T09:14:00.791Z,3.0
2023-05-19T09:15:01.642Z,3.1
2023-05-19T09:16:01.141Z,3.1
2023-05-19T09:17:01.221Z,3.1
2023-05-19T09:18:04.870Z,3.1
2023-05-19T09:19:00.854Z,3.1
2023-05-19T09:20:01.406Z,3.1
2023-05-19T09:21:00.886Z,3.1
2023-05-19T09:22:01.564Z,3.1
2023-05-19T09:23:00.809Z,3.1
2023-05-19T09:24:04.350Z,3.1
2023-05-19T09:25:00.820Z,3.3
2023-05-19T09:26:01.771Z,3.3
2023-05-19T09:27:00.814Z,3.3
2023-05-19T09:28:00.844Z,3.3
2023-05-19T09:29:00.888Z,3.3
2023-05-19T09:30:06.574Z,3.3
2023-05-19T09:31:02.982Z,3.3
2023-05-19T09:32:01.198Z,3.3
2023-05-19T09:33:00.851Z,3.3
2023-05-19T09:34:00.804Z,3.3
2023-05-19T09:35:01.867Z,3.2
2023-05-19T09:36:01.013Z,3.2
2023-05-19T09:37:00.839Z,3.2
2023-05-19T09:38:00.803Z,3.2
2023-05-19T09:39:00.873Z,3.2
2023-05-19T09:40:02.707Z,3.2
2023-05-19T09:41:00.954Z,3.2
2023-05-19T09:42:03.391Z,3.2
2023-05-19T09:43:04.024Z,3.2
2023-05-19T09:44:00.823Z,3.2
2023-05-19T09:45:01.619Z,3.2
2023-05-19T09:46:04.268Z,3.2
2023-05-19T09:47:00.767Z,3.2
2023-05-19T09:48:04.202Z,3.2
2023-05-19T09:49:08.303Z,3.2
2023-05-19T09:50:00.816Z,3.2
2023-05-19T09:51:01.300Z,3.2
2023-05-19T09:52:02.306Z,3.2
2023-05-19T09:53:00.880Z,3.2
2023-05-19T09:54:00.833Z,3.2
2023-05-19T09:55:01.193Z,3.2
2023-05-19T09:56:01.535Z,3.2
2023-05-19T09:57:01.658Z,3.2
2023-05-19T09:58:00.893Z,3.2
2023-05-19T09:59:04.032Z,3.2
2023-05-19T10:00:01.697Z,3.2
2023-05-19T10:01:01.931Z,3.2
2023-05-19T10:02:01.112Z,3.2
2023-05-19T10:03:02.947Z,3.2
2023-05-19T10:04:03.807Z,3.2
2023-05-19T10:05:01.508Z,3.1
2023-05-19T10:06:00.863Z,3.1
2023-05-19T10:07:03.123Z,3.1
2023-05-19T10:08:02.022Z,3.1
2023-05-19T10:09:01.137Z,3.1
2023-05-19T10:10:01.542Z,3.1
2023-05-19T10:11:00.820Z,3.1
2023-05-19T10:12:01.380Z,3.1
2023-05-19T10:13:01.266Z,3.1
2023-05-19T10:14:00.769Z,3.1
2023-05-19T10:15:01.463Z,3.3
2023-05-19T10:16:01.216Z,3.3
2023-05-19T10:17:00.887Z,3.3
2023-05-19T10:18:01.993Z,3.3
2023-05-19T10:19:01.301Z,3.3
2023-05-19T10:20:01.279Z,3.3
2023-05-19T10:21:01.418Z,3.3
2023-05-19T10:22:00.788Z,3.3
2023-05-19T10:23:00.923Z,3.3
2023-05-19T10:24:00.864Z,3.3
2023-05-19T10:25:00.786Z,3.3
2023-05-19T10:26:02.864Z,3.3
2023-05-19T10:27:10.645Z,3.3
2023-05-19T10:28:01.802Z,3.3
2023-05-19T10:29:02.068Z,3.3
2023-05-19T10:30:03.133Z,3.3
2023-05-19T10:31:02.114Z,3.3
2023-05-19T10:32:04.429Z,3.3
2023-05-19T10:33:02.692Z,3.3
2023-05-19T10:34:01.793Z,3.3
2023-05-19T10:35:01.814Z,3.3
2023-05-19T10:36:10.662Z,3.3
2023-05-19T10:37:00.748Z,3.3
2023-05-19T10:38:09.402Z,3.3
2023-05-19T10:39:05.499Z,3.3
2023-05-19T10:40:04.108Z,3.3
2023-05-19T10:41:06.544Z,3.3
2023-05-19T10:42:00.769Z,3.3
2023-05-19T10:43:01.778Z,3.3
2023-05-19T10:44:04.122Z,3.3
2023-05-19T10:45:08.701Z,3.2
2023-05-19T10:46:00.814Z,3.2
2023-05-19T10:47:00.905Z,3.2
2023-05-19T10:48:00.919Z,3.2
2023-05-19T10:49:00.768Z,3.2
2023-05-19T10:50:01.032Z,3.2
2023-05-19T10:51:01.409Z,3.2
2023-05-19T10:52:00.982Z,3.2
2023-05-19T10:53:01.394Z,3.2
2023-05-19T10:54:01.544Z,3.2
2023-05-19T10:55:00.804Z,3.3
2023-05-19T10:56:01.445Z,3.3
2023-05-19T10:57:00.837Z,3.3
2023-05-19T10:58:00.782Z,3.3
2023-05-19T10:59:01.568Z,3.3
2023-05-19T11:00:03.498Z,3.3
2023-05-19T11:01:00.805Z,3.3
2023-05-19T11:02:04.484Z,3.3
2023-05-19T11:03:10.684Z,3.3
2023-05-19T11:04:08.797Z,3.3
2023-05-19T11:05:06.961Z,3.6
2023-05-19T11:06:10.698Z,3.6
2023-05-19T11:07:00.973Z,3.6
2023-05-19T11:08:00.942Z,3.6
2023-05-19T11:09:08.098Z,3.6
2023-05-19T11:10:04.788Z,3.6
2023-05-19T11:11:10.654Z,3.6
2023-05-19T11:12:01.893Z,3.6
2023-05-19T11:13:00.991Z,3.6
2023-05-19T11:14:00.784Z,3.6
2023-05-19T11:15:01.990Z,4.0
2023-05-19T11:16:06.117Z,4.0
2023-05-19T11:17:01.049Z,4.0
2023-05-19T11:18:01.174Z,4.0
2023-05-19T11:19:01.096Z,4.0
2023-05-19T11:20:00.784Z,4.0
2023-05-19T11:21:00.875Z,4.0
2023-05-19T11:22:08.834Z,4.0
2023-05-19T11:23:00.834Z,4.0
2023-05-19T11:24:00.973Z,4.0
2023-05-19T11:25:00.811Z,4.5
2023-05-19T11:26:01.276Z,4.5
2023-05-19T11:27:10.659Z,4.5
2023-05-19T11:28:01.478Z,4.5
2023-05-19T11:29:01.163Z,4.5
2023-05-19T11:30:07.361Z,4.5
2023-05-19T11:31:01.272Z,4.5
2023-05-19T11:32:00.908Z,4.5
2023-05-19T11:33:01.344Z,4.5
2023-05-19T11:34:01.116Z,4.5
2023-05-19T11:35:01.391Z,3.6
2023-05-19T11:36:01.643Z,3.6
2023-05-19T11:37:00.836Z,3.6
2023-05-19T11:38:01.037Z,3.6
2023-05-19T11:39:01.105Z,3.6
2023-05-19T11:40:01.468Z,3.6
2023-05-19T11:41:02.465Z,3.6
2023-05-19T11:42:00.795Z,3.6
2023-05-19T11:43:00.777Z,3.6
2023-05-19T11:44:00.799Z,3.6
2023-05-19T11:45:01.226Z,3.3
2023-05-19T11:46:00.869Z,3.3
2023-05-19T11:47:00.876Z,3.3
2023-05-19T11:48:03.114Z,3.3
2023-05-19T11:49:00.863Z,3.3
2023-05-19T11:50:00.812Z,3.3
2023-05-19T11:51:00.824Z,3.3
2023-05-19T11:52:01.561Z,3.3
2023-05-19T11:53:00.783Z,3.3
2023-05-19T11:54:01.672Z,3.3
2023-05-19T11:55:00.828Z,3.5
2023-05-19T11:56:02.756Z,3.5
2023-05-19T11:57:01.509Z,3.5
2023-05-19T11:58:04.606Z,3.5
2023-05-19T11:59:00.781Z,3.5
2023-05-19T12:00:01.299Z,3.5
2023-05-19T12:01:02.888Z,3.5
2023-05-19T12:02:10.712Z,3.5
2023-05-19T12:03:00.913Z,3.5
2023-05-19T12:04:01.124Z,3.5
2023-05-19T12:05:00.788Z,3.4
2023-05-19T12:06:02.455Z,3.4
2023-05-19T12:07:00.813Z,3.4
2023-05-19T12:08:01.386Z,3.4
2023-05-19T12:09:00.828Z,3.4
2023-05-19T12:10:00.807Z,3.4
2023-05-19T12:11:00.833Z,3.4
2023-05-19T12:12:01.586Z,3.4
2023-05-19T12:13:00.986Z,3.4
2023-05-19T12:14:00.776Z,3.4
2023-05-19T12:15:01.583Z,3.3
2023-05-19T12:16:02.496Z,3.3
2023-05-19T12:17:10.635Z,3.3
2023-05-19T12:18:01.495Z,3.3
2023-05-19T12:19:01.154Z,3.3
2023-05-19T12:20:01.672Z,3.3
2023-05-19T12:21:00.831Z,3.3
2023-05-19T12:22:02.188Z,3.3
2023-05-19T12:23:01.274Z,3.3
2023-05-19T12:24:01.071Z,3.3
2023-05-19T12:25:01.179Z,3.2
2023-05-19T12:26:00.858Z,3.2
2023-05-19T12:27:10.655Z,3.2
2023-05-19T12:28:00.884Z,3.2
2023-05-19T12:29:00.766Z,3.2
2023-05-19T12:30:02.084Z,3.2
2023-05-19T12:31:01.409Z,3.2
2023-05-19T12:32:00.973Z,3.2
2023-05-19T12:33:01.274Z,3.2
2023-05-19T12:34:00.781Z,3.2
2023-05-19T12:35:01.849Z,3.4
2023-05-19T12:36:00.820Z,3.4
2023-05-19T12:37:01.249Z,3.4
2023-05-19T12:38:02.878Z,3.4
2023-05-19T12:39:00.795Z,3.4
2023-05-19T12:40:01.566Z,3.4
2023-05-19T12:41:00.819Z,3.4
2023-05-19T12:42:02.855Z,3.4
2023-05-19T12:43:00.792Z,3.4
2023-05-19T12:44:00.784Z,3.4
2023-05-19T12:45:03.494Z,3.6
2023-05-19T12:46:10.146Z,3.6
2023-05-19T12:47:03.239Z,3.6
2023-05-19T12:48:02.381Z,3.6
2023-05-19T12:49:00.859Z,3.6
2023-05-19T12:50:02.121Z,3.6
2023-05-19T12:51:00.808Z,3.6
2023-05-19T12:52:03.269Z,3.6
2023-05-19T12:53:00.837Z,3.6
2023-05-19T12:54:02.186Z,3.6
2023-05-19T12:55:01.782Z,3.6
2023-05-19T12:56:00.836Z,3.6
2023-05-19T12:57:00.906Z,3.6
2023-05-19T12:58:04.671Z,3.6
2023-05-19T12:59:00.784Z,3.6
2023-05-19T13:00:02.082Z,3.6
2023-05-19T13:01:00.915Z,3.6
2023-05-19T13:02:00.818Z,3.6
2023-05-19T13:03:04.269Z,3.6
2023-05-19T13:04:02.090Z,3.6
2023-05-19T13:05:01.306Z,4.9
2023-05-19T13:06:00.766Z,4.9
2023-05-19T13:07:00.796Z,4.9
2023-05-19T13:08:03.588Z,4.9
2023-05-19T13:09:00.785Z,4.9
2023-05-19T13:10:00.902Z,4.9
2023-05-19T13:11:00.851Z,4.9
2023-05-19T13:12:00.809Z,4.9
2023-05-19T13:13:01.341Z,4.9
2023-05-19T13:14:00.797Z,4.9
2023-05-19T13:15:00.813Z,4.8
2023-05-19T13:16:00.835Z,4.8
2023-05-19T13:17:00.808Z,4.8
2023-05-19T13:18:02.151Z,4.8
2023-05-19T13:19:01.533Z,4.8
2023-05-19T13:20:00.885Z,4.8
2023-05-19T13:21:00.799Z,4.8
2023-05-19T13:22:00.804Z,4.8
2023-05-19T13:23:01.152Z,4.8
2023-05-19T13:24:00.806Z,4.8
2023-05-19T13:25:00.805Z,5.2
2023-05-19T13:26:00.829Z,5.2
2023-05-19T13:27:00.806Z,5.2
2023-05-19T13:28:01.325Z,5.2
2023-05-19T13:29:00.997Z,5.2
2023-05-19T13:30:01.175Z,5.2
2023-05-19T13:31:00.837Z,5.2
2023-05-19T13:32:01.638Z,5.2
2023-05-19T13:33:01.302Z,5.2
2023-05-19T13:34:01.278Z,5.2
2023-05-19T13:35:00.855Z,3.9
2023-05-19T13:36:00.831Z,3.9
2023-05-19T13:37:00.864Z,3.9
2023-05-19T13:38:00.764Z,3.9
2023-05-19T13:39:00.853Z,3.9
2023-05-19T13:40:01.307Z,3.9
2023-05-19T13:41:00.893Z,3.9
2023-05-19T13:42:00.778Z,3.9
2023-05-19T13:43:01.605Z,3.9
2023-05-19T13:44:00.830Z,3.9
2023-05-19T13:45:01.295Z,3.1
2023-05-19T13:46:00.914Z,3.1
2023-05-19T13:47:00.923Z,3.1